Time;durP1;ratioP1;P1;durP2;ratioP2;P2;SDS_P1;SDS_P2;PMS_P1;PMS_P2;Temp;Humidity;BMP_temperature;BMP_pressure;BME280_temperature;BME280_humidity;BME280_pressure;Samples;Min_cycle;Max_cycle;Signal;HPM_P1;HPM_P2
2022/02/04 00:04:50;;;;;;;12.90;11.50;;;8.10;99.90;;;;;;5043186;28;20478;-72
2022/02/04 00:20:24;;;;;;;13.93;12.57;;;8.60;99.90;;;;;;5044467;28;20391;-73
2022/02/04 00:27:54;;;;;;;11.20;10.10;;;8.70;99.90;;;;;;5042786;28;20899;-74
2022/02/04 00:30:26;;;;;;;13.40;12.10;;;8.80;99.90;;;;;;5043642;28;20800;-74
2022/02/04 00:32:54;;;;;;;14.37;11.50;;;8.90;99.90;;;;;;5043567;28;20447;-75
2022/02/04 00:35:43;;;;;;;12.20;10.90;;;8.80;99.90;;;;;;5043764;28;20773;-73
2022/02/04 00:40:41;;;;;;;11.00;9.60;;;8.80;99.90;;;;;;5043852;28;20409;-73
2022/02/04 00:43:10;;;;;;;11.50;10.40;;;8.90;99.90;;;;;;5043365;28;20477;-73
2022/02/04 00:51:27;;;;;;;12.80;11.13;;;8.80;99.90;;;;;;5043733;28;20412;-73
2022/02/04 01:26:12;;;;;;;9.60;8.60;;;8.90;99.90;;;;;;5025703;28;20412;-73
2022/02/04 01:28:40;;;;;;;9.40;8.60;;;8.90;99.90;;;;;;5026795;28;20458;-73
2022/02/04 01:31:07;;;;;;;9.77;8.80;;;8.90;99.90;;;;;;5045897;28;20430;-73
2022/02/04 01:33:33;;;;;;;8.70;7.80;;;8.70;99.90;;;;;;5044817;28;20505;-73
2022/02/04 01:36:00;;;;;;;7.97;7.30;;;8.60;99.90;;;;;;5045634;28;20436;-72
2022/02/04 01:38:28;;;;;;;8.73;7.83;;;8.70;99.90;;;;;;5045527;28;20532;-73
2022/02/04 01:40:55;;;;;;;10.77;7.13;;;8.60;99.90;;;;;;5045557;28;20515;-71
2022/02/04 01:43:22;;;;;;;7.60;6.80;;;8.40;99.90;;;;;;5044686;28;20412;-74
2022/02/04 01:46:02;;;;;;;7.60;6.90;;;8.40;99.90;;;;;;5045570;28;20416;-71
2022/02/04 01:48:28;;;;;;;7.17;6.17;;;8.40;99.90;;;;;;5045333;28;20490;-72
2022/02/04 01:50:54;;;;;;;7.43;6.63;;;8.40;99.90;;;;;;5045282;28;20420;-73
2022/02/04 01:53:27;;;;;;;7.20;6.60;;;8.40;99.90;;;;;;5027332;28;20240;-73
2022/02/04 01:55:54;;;;;;;7.67;6.87;;;8.40;99.90;;;;;;5027291;28;20192;-73
2022/02/04 01:58:20;;;;;;;6.70;6.00;;;8.50;99.90;;;;;;5043836;28;21514;-71
2022/02/04 02:00:45;;;;;;;8.13;7.33;;;8.70;99.90;;;;;;5045327;28;20416;-72
2022/02/04 02:03:11;;;;;;;8.23;7.43;;;8.80;99.90;;;;;;5045194;28;20250;-73
2022/02/04 02:05:37;;;;;;;7.60;6.87;;;8.60;99.90;;;;;;5044348;28;20639;-72
2022/02/04 02:08:18;;;;;;;7.30;6.53;;;8.60;99.90;;;;;;5044773;28;20210;-73
2022/02/04 02:10:45;;;;;;;6.23;5.63;;;8.60;99.90;;;;;;5043909;28;20254;-73
2022/02/04 02:46:23;;;;;;;6.60;5.60;;;9.10;99.90;;;;;;5044971;28;20411;-73
2022/02/04 02:58:33;;;;;;;9.50;8.60;;;9.10;99.90;;;;;;5045180;28;20444;-74
2022/02/04 03:01:08;;;;;;;7.63;6.83;;;9.10;99.90;;;;;;5044057;28;20423;-73
2022/02/04 03:03:35;;;;;;;7.20;6.50;;;9.00;99.90;;;;;;5045188;28;20420;-73
2022/02/04 03:06:01;;;;;;;6.47;5.60;;;9.00;99.90;;;;;;5044962;28;20412;-72
2022/02/04 03:08:27;;;;;;;7.77;6.97;;;9.10;99.90;;;;;;5044988;28;20433;-72
2022/02/04 03:10:55;;;;;;;7.20;6.50;;;9.10;99.90;;;;;;5026866;28;20208;-72
2022/02/04 03:13:22;;;;;;;8.40;7.60;;;8.90;99.90;;;;;;5044517;28;20460;-73
2022/02/04 03:15:57;;;;;;;7.07;6.47;;;8.80;99.90;;;;;;5044572;28;20419;-72
2022/02/04 03:18:24;;;;;;;6.77;6.17;;;8.80;99.90;;;;;;5044580;28;20464;-73
2022/02/04 03:20:53;;;;;;;6.63;6.03;;;9.00;99.90;;;;;;5043464;28;20425;-73
2022/02/04 03:23:20;;;;;;;8.43;7.63;;;9.10;99.90;;;;;;5044752;28;20413;-72
2022/02/04 03:25:51;;;;;;;6.90;6.30;;;9.10;99.90;;;;;;5026038;28;20443;-73
2022/02/04 03:28:23;;;;;;;7.67;6.97;;;9.20;99.90;;;;;;5026756;28;20548;-72
2022/02/04 03:30:50;;;;;;;6.63;6.03;;;9.20;99.90;;;;;;5043342;28;20875;-72
2022/02/04 03:33:19;;;;;;;7.13;6.50;;;9.10;99.90;;;;;;5044366;28;20448;-72
2022/02/04 03:35:45;;;;;;;7.73;6.97;;;9.20;99.90;;;;;;5044173;28;20472;-73
2022/02/04 03:38:10;;;;;;;6.60;6.00;;;9.30;99.90;;;;;;5025753;28;20996;-73
2022/02/04 03:40:36;;;;;;;6.30;5.77;;;9.30;99.90;;;;;;5044356;28;20532;-73
2022/02/04 03:43:01;;;;;;;7.77;7.07;;;9.30;99.90;;;;;;5026756;28;20195;-73
2022/02/04 03:45:27;;;;;;;7.27;6.57;;;9.10;99.90;;;;;;5044458;28;20270;-73
2022/02/04 03:47:53;;;;;;;8.13;6.57;;;9.20;99.90;;;;;;5044382;28;20219;-74
2022/02/04 03:50:19;;;;;;;6.77;6.13;;;9.20;99.90;;;;;;5044469;28;20194;-73
2022/02/04 03:52:45;;;;;;;6.77;6.07;;;9.30;99.90;;;;;;5043932;28;21118;-73
2022/02/04 03:55:11;;;;;;;7.70;6.90;;;9.20;99.90;;;;;;5043067;28;20453;-72
2022/02/04 03:57:36;;;;;;;7.87;7.20;;;9.20;99.90;;;;;;5043976;28;20198;-73
2022/02/04 04:00:08;;;;;;;7.90;6.60;;;9.10;99.90;;;;;;5043260;28;20506;-72
2022/02/04 04:02:33;;;;;;;6.10;5.50;;;9.10;99.90;;;;;;5043700;28;20196;-72
2022/02/04 04:04:59;;;;;;;7.43;6.73;;;9.00;99.90;;;;;;5043346;28;20956;-72
2022/02/04 04:07:25;;;;;;;6.90;6.30;;;8.80;99.90;;;;;;5025839;28;20214;-72
2022/02/04 04:09:57;;;;;;;6.40;5.80;;;8.80;99.90;;;;;;5043614;28;20200;-72
2022/02/04 04:12:24;;;;;;;6.63;6.03;;;8.60;99.90;;;;;;5044038;28;21297;-72
2022/02/04 04:14:53;;;;;;;6.90;6.20;;;8.60;99.90;;;;;;5043976;28;20424;-72
2022/02/04 04:17:19;;;;;;;6.63;5.93;;;8.80;99.90;;;;;;5042379;28;20475;-72
2022/02/04 04:19:45;;;;;;;6.90;6.30;;;8.90;99.90;;;;;;5043847;28;20993;-72
2022/02/04 04:22:10;;;;;;;6.03;5.43;;;9.00;99.90;;;;;;5043219;28;20435;-74
2022/02/04 04:24:36;;;;;;;8.10;7.30;;;9.00;99.90;;;;;;5043769;28;20231;-73
2022/02/04 04:27:02;;;;;;;7.10;6.40;;;9.00;99.90;;;;;;5043143;28;20201;-72
2022/02/04 04:29:27;;;;;;;7.57;6.87;;;8.90;99.90;;;;;;5025620;28;20284;-73
2022/02/04 04:31:53;;;;;;;7.13;6.50;;;8.80;99.90;;;;;;5042733;28;20212;-72
2022/02/04 04:34:19;;;;;;;6.50;5.90;;;8.80;99.90;;;;;;5043515;28;20175;-72
2022/02/04 04:36:45;;;;;;;6.90;6.23;;;8.80;99.90;;;;;;5043311;28;20206;-72
2022/02/04 04:39:23;;;;;;;5.60;5.10;;;8.80;99.90;;;;;;5042325;28;20196;-73
2022/02/04 04:42:11;;;;;;;6.80;6.20;;;8.80;99.90;;;;;;5043433;28;20170;-72
2022/02/04 04:45:17;;;;;;;6.57;5.97;;;8.80;99.90;;;;;;5046193;28;20436;-72
2022/02/04 05:26:20;;;;;;;6.40;5.80;;;8.60;99.90;;;;;;5046842;28;20905;-73
2022/02/04 05:31:18;;;;;;;6.40;5.87;;;8.50;99.90;;;;;;5046904;28;20412;-72
2022/02/04 05:33:43;;;;;;;6.33;5.77;;;8.60;99.90;;;;;;5028688;28;20506;-71
2022/02/04 05:36:10;;;;;;;6.10;5.50;;;8.50;99.90;;;;;;5046926;28;20217;-72
2022/02/04 05:38:37;;;;;;;6.70;6.13;;;8.60;99.90;;;;;;5027685;28;20205;-73
2022/02/04 05:41:05;;;;;;;7.07;6.47;;;8.60;99.90;;;;;;5046581;28;20444;-73
2022/02/04 05:43:34;;;;;;;6.10;5.60;;;8.70;99.90;;;;;;5045307;28;20521;-73
2022/02/04 05:46:08;;;;;;;5.93;5.33;;;8.60;99.90;;;;;;5046821;28;20424;-73
2022/02/04 05:48:36;;;;;;;5.90;5.40;;;8.60;99.90;;;;;;5045193;28;20446;-73
2022/02/04 05:54:01;;;;;;;7.10;6.40;;;8.60;99.90;;;;;;5045471;28;20466;-74
2022/02/04 05:56:51;;;;;;;6.80;6.20;;;8.70;99.90;;;;;;5046597;28;20401;-73
2022/02/04 06:04:20;;;;;;;7.57;6.87;;;8.50;99.90;;;;;;5045297;28;20661;-74
2022/02/04 06:22:29;;;;;;;6.97;6.40;;;8.40;99.90;;;;;;5045872;28;20886;-74
2022/02/04 06:24:55;;;;;;;7.87;7.10;;;8.40;99.90;;;;;;5045337;28;20518;-74
2022/02/04 06:27:25;;;;;;;7.57;6.87;;;8.40;99.90;;;;;;5024458;28;20466;-73
2022/02/04 06:29:53;;;;;;;7.13;6.47;;;8.40;99.90;;;;;;5026630;28;20558;-73
2022/02/04 06:32:19;;;;;;;11.90;8.27;;;8.40;99.90;;;;;;5045715;28;20460;-73
2022/02/04 06:34:47;;;;;;;6.97;6.27;;;8.30;99.90;;;;;;5045719;28;20417;-71
2022/02/04 06:37:13;;;;;;;8.30;7.60;;;8.40;99.90;;;;;;5045645;28;20429;-70
2022/02/04 06:39:39;;;;;;;11.57;10.03;;;8.40;99.90;;;;;;5045420;28;20501;-72
2022/02/04 06:42:05;;;;;;;12.27;11.00;;;8.30;99.90;;;;;;5045216;28;20455;-72
2022/02/04 06:44:31;;;;;;;9.33;8.43;;;8.30;99.90;;;;;;5044578;28;20209;-73
2022/02/04 06:46:57;;;;;;;8.80;8.00;;;8.40;99.90;;;;;;5045698;28;20473;-74
2022/02/04 06:49:22;;;;;;;8.20;7.50;;;8.40;99.90;;;;;;5044365;28;21603;-72
2022/02/04 06:51:48;;;;;;;8.10;7.40;;;8.30;99.90;;;;;;5045565;28;20200;-73
2022/02/04 06:54:14;;;;;;;14.20;12.17;;;8.40;99.90;;;;;;5044765;28;20436;-72
2022/02/04 06:56:39;;;;;;;9.33;8.47;;;8.40;99.90;;;;;;5045394;28;20267;-72
2022/02/04 06:59:06;;;;;;;10.80;9.80;;;8.40;99.90;;;;;;5044340;28;20214;-71
2022/02/04 07:01:33;;;;;;;12.23;10.87;;;8.60;99.90;;;;;;5045194;28;20238;-72
2022/02/04 07:04:04;;;;;;;8.57;7.77;;;8.70;99.90;;;;;;5045150;28;20414;-72
2022/02/04 07:06:35;;;;;;;8.43;7.73;;;8.70;99.90;;;;;;5043194;28;20758;-72
2022/02/04 07:14:34;;;;;;;8.60;7.70;;;8.50;99.90;;;;;;5043940;28;21311;-71
2022/02/04 07:19:47;;;;;;;9.17;8.37;;;8.50;99.90;;;;;;5043714;28;20432;-72
2022/02/04 07:22:17;;;;;;;8.90;8.00;;;8.50;99.90;;;;;;5045015;28;20423;-73
2022/02/04 07:24:44;;;;;;;7.53;6.80;;;8.40;99.90;;;;;;5043368;28;20482;-72
2022/02/04 07:27:09;;;;;;;6.93;6.33;;;8.50;99.90;;;;;;5044348;28;20503;-73
2022/02/04 07:29:36;;;;;;;9.40;8.50;;;8.40;99.90;;;;;;5024118;28;20424;-74
2022/02/04 07:32:07;;;;;;;8.23;7.40;;;8.40;99.90;;;;;;5041804;28;20617;-72
2022/02/04 07:42:45;;;;;;;7.60;6.90;;;8.40;99.90;;;;;;5044025;28;20493;-73
2022/02/04 07:45:11;;;;;;;7.87;7.17;;;8.60;99.90;;;;;;5044331;28;20473;-73
2022/02/04 07:47:37;;;;;;;7.40;6.77;;;8.60;99.90;;;;;;5044432;28;20198;-72
2022/02/04 07:50:04;;;;;;;7.50;6.80;;;8.60;99.90;;;;;;5043108;28;20174;-73
2022/02/04 07:52:30;;;;;;;8.83;8.03;;;8.70;99.90;;;;;;5026389;28;20682;-72
2022/02/04 07:54:55;;;;;;;8.83;8.03;;;8.70;99.90;;;;;;5025514;28;20519;-72
2022/02/04 07:57:21;;;;;;;9.53;7.77;;;8.70;99.90;;;;;;5044096;28;20282;-73
2022/02/04 07:59:47;;;;;;;8.90;8.00;;;8.70;99.90;;;;;;5043662;28;20197;-71
2022/02/04 08:02:14;;;;;;;8.50;7.70;;;8.60;99.90;;;;;;5044050;28;20259;-72
2022/02/04 08:04:41;;;;;;;8.40;7.60;;;8.80;99.90;;;;;;5043771;28;20416;-72
2022/02/04 08:07:11;;;;;;;7.50;6.60;;;8.80;99.90;;;;;;5044027;28;20947;-72
2022/02/04 08:15:14;;;;;;;8.93;8.03;;;8.40;99.90;;;;;;5044249;28;20462;-71
2022/02/04 08:20:51;;;;;;;8.40;7.60;;;8.60;99.90;;;;;;5044160;28;20912;-72
2022/02/04 08:23:34;;;;;;;9.90;8.90;;;8.40;99.90;;;;;;5042168;28;21258;-72
2022/02/04 08:50:14;;;;;;;9.20;8.30;;;8.20;99.90;;;;;;5043415;28;20504;-73
2022/02/04 08:55:36;;;;;;;10.20;8.27;;;8.20;99.90;;;;;;5028397;28;21249;-72
2022/02/04 08:58:51;;;;;;;7.60;6.80;;;8.20;99.90;;;;;;5042484;28;20497;-72
2022/02/04 09:00:59;;;;;;;8.10;7.20;;;8.00;99.90;;;;;;5035519;28;20765;-72
2022/02/04 09:03:28;;;;;;;8.20;7.17;;;8.10;99.90;;;;;;5042116;28;20422;-72
2022/02/04 09:06:14;;;;;;;9.27;8.40;;;8.20;99.90;;;;;;5025143;28;20432;-72
2022/02/04 09:08:50;;;;;;;7.23;6.53;;;8.40;99.90;;;;;;5043365;28;20458;-72
2022/02/04 09:11:27;;;;;;;11.93;10.77;;;8.50;99.90;;;;;;5043523;28;20412;-72
2022/02/04 09:19:22;;;;;;;7.70;7.00;;;9.00;99.90;;;;;;5043072;28;20451;-72
2022/02/04 09:24:24;;;;;;;9.87;7.53;;;9.50;99.90;;;;;;5043361;28;20398;-72
2022/02/04 09:26:52;;;;;;;8.80;7.10;;;9.40;99.90;;;;;;5042015;28;20462;-72
2022/02/04 09:29:18;;;;;;;7.77;7.07;;;9.40;99.90;;;;;;5043709;28;20945;-73
2022/02/04 09:31:43;;;;;;;7.10;6.40;;;9.60;99.90;;;;;;5046527;28;20414;-72
2022/02/04 09:34:09;;;;;;;6.00;5.47;;;9.60;99.90;;;;;;5046173;28;20460;-73
2022/02/04 09:36:36;;;;;;;5.93;5.43;;;9.60;99.90;;;;;;5046741;28;20177;-74
2022/02/04 09:39:07;;;;;;;5.50;5.00;;;9.60;99.90;;;;;;5046596;28;20436;-74
2022/02/04 09:41:33;;;;;;;4.90;4.33;;;9.40;99.90;;;;;;5046626;28;20413;-73
2022/02/04 09:43:59;;;;;;;5.50;5.00;;;9.40;99.90;;;;;;5046603;28;20425;-71
2022/02/04 09:46:24;;;;;;;6.37;4.80;;;9.40;99.90;;;;;;5046723;28;20920;-73
2022/02/04 09:48:56;;;;;;;4.60;4.20;;;9.30;99.90;;;;;;5027240;28;20209;-73
2022/02/04 09:51:30;;;;;;;5.20;4.70;;;9.30;99.90;;;;;;5046656;28;20465;-71
2022/02/04 10:04:34;;;;;;;4.43;4.10;;;9.30;99.90;;;;;;5046563;28;20897;-72
2022/02/04 10:22:10;;;;;;;4.23;3.83;;;9.90;99.90;;;;;;5045922;28;20397;-72
2022/02/04 10:24:36;;;;;;;4.73;4.07;;;10.00;99.90;;;;;;5028953;28;20814;-72
2022/02/04 10:27:18;;;;;;;3.80;3.40;;;10.00;99.90;;;;;;5045611;28;20451;-73
2022/02/04 10:29:56;;;;;;;3.70;3.40;;;9.80;99.90;;;;;;5042444;28;20456;-73
2022/02/04 10:32:48;;;;;;;4.27;3.87;;;9.50;99.90;;;;;;5028318;28;20491;-73
2022/02/04 10:35:20;;;;;;;4.27;3.87;;;9.70;99.90;;;;;;5045621;28;20469;-73
2022/02/04 10:43:55;;;;;;;4.37;3.97;;;9.70;99.90;;;;;;5045250;28;20850;-72
2022/02/04 10:46:37;;;;;;;3.93;3.63;;;10.10;99.90;;;;;;5045107;28;20599;-73
2022/02/04 10:58:09;;;;;;;3.50;3.20;;;11.00;99.90;;;;;;5044220;28;20497;-72
2022/02/04 11:00:06;;;;;;;2.43;2.23;;;10.70;99.90;;;;;;5030387;28;20406;-72
2022/02/04 11:02:42;;;;;;;2.13;1.97;;;10.30;99.90;;;;;;5026513;28;20508;-72
2022/02/04 11:05:24;;;;;;;3.13;2.60;;;10.20;99.90;;;;;;5044419;28;20784;-72
2022/02/04 11:10:52;;;;;;;2.47;2.27;;;10.20;99.90;;;;;;5043704;28;20805;-72
2022/02/04 11:30:53;;;;;;;2.67;2.47;;;10.60;99.90;;;;;;5044417;28;20432;-73
2022/02/04 11:31:31;;;;;;;3.43;2.57;;;10.10;99.90;;;;;;5043340;28;20913;-74
2022/02/04 11:34:24;;;;;;;2.30;2.10;;;10.10;99.90;;;;;;5041303;28;20461;-74
2022/02/04 11:49:55;;;;;;;1.93;1.73;;;10.30;99.90;;;;;;5041740;28;20528;-72
2022/02/04 11:54:30;;;;;;;2.03;1.83;;;10.30;99.90;;;;;;5041962;28;20564;-72
2022/02/04 11:57:02;;;;;;;1.70;1.40;;;10.20;99.90;;;;;;5042550;28;20447;-71
2022/02/04 11:59:43;;;;;;;2.00;1.90;;;10.60;99.90;;;;;;5034945;28;20433;-71
2022/02/04 12:02:28;;;;;;;1.67;1.50;;;10.40;99.90;;;;;;5024142;28;20422;-72
2022/02/04 12:05:17;;;;;;;1.67;1.57;;;10.50;99.90;;;;;;5043350;28;20409;-71
2022/02/04 12:07:47;;;;;;;2.20;1.70;;;10.70;99.90;;;;;;5018105;28;20981;-71
2022/02/04 12:10:13;;;;;;;1.57;1.40;;;10.80;99.90;;;;;;5041609;28;20440;-72
2022/02/04 12:12:57;;;;;;;1.40;1.30;;;10.70;99.90;;;;;;5042170;28;20450;-71
2022/02/04 12:15:31;;;;;;;1.77;1.63;;;10.30;99.90;;;;;;5041711;28;20179;-72
2022/02/04 12:17:59;;;;;;;1.60;1.40;;;10.20;99.90;;;;;;5023685;28;20527;-71
2022/02/04 12:23:31;;;;;;;2.33;1.43;;;9.80;99.90;;;;;;5043309;28;20409;-71
2022/02/04 12:26:10;;;;;;;1.33;1.20;;;9.80;99.90;;;;;;5041567;28;20410;-72
2022/02/04 12:28:41;;;;;;;4.93;1.57;;;10.00;99.90;;;;;;5042210;28;20433;-71
2022/02/04 12:31:30;;;;;;;1.60;1.47;;;9.90;99.90;;;;;;5042160;28;20928;-72
2022/02/04 12:34:05;;;;;;;1.77;1.50;;;9.70;99.90;;;;;;5041301;28;20992;-72
2022/02/04 12:36:33;;;;;;;1.73;1.43;;;9.70;99.90;;;;;;5042538;28;20416;-72
2022/02/04 12:39:24;;;;;;;1.60;1.30;;;9.90;99.90;;;;;;5042848;28;20422;-74
2022/02/04 12:41:55;;;;;;;2.17;1.30;;;9.90;99.90;;;;;;5019356;28;20417;-73
2022/02/04 12:44:26;;;;;;;1.70;1.30;;;9.90;99.90;;;;;;5041643;28;20906;-74
2022/02/04 12:46:55;;;;;;;1.47;1.30;;;9.80;99.90;;;;;;5040634;28;22020;-72
2022/02/04 12:49:26;;;;;;;1.60;1.43;;;9.90;99.90;;;;;;5024780;28;20456;-72
2022/02/04 12:54:44;;;;;;;2.90;1.57;;;9.80;99.90;;;;;;5043997;28;20741;-73
2022/02/04 13:11:00;;;;;;;1.20;1.10;;;10.10;99.90;;;;;;5046589;28;20451;-74
2022/02/04 13:13:31;;;;;;;1.90;1.70;;;10.40;99.90;;;;;;5046572;28;20457;-74
2022/02/04 13:15:56;;;;;;;1.93;1.83;;;10.20;99.90;;;;;;5043526;28;20418;-73
2022/02/04 13:18:23;;;;;;;3.23;2.07;;;10.10;99.90;;;;;;5047679;28;20878;-73
2022/02/04 13:20:52;;;;;;;2.03;1.60;;;9.90;99.90;;;;;;5047824;28;20205;-74
2022/02/04 13:23:21;;;;;;;1.87;1.60;;;9.80;99.90;;;;;;5047240;28;20424;-73
2022/02/04 13:25:49;;;;;;;2.50;1.70;;;9.80;99.90;;;;;;5048768;28;20920;-73
2022/02/04 13:28:26;;;;;;;3.23;1.83;;;10.00;99.90;;;;;;5047867;28;20515;-73
2022/02/04 13:31:01;;;;;;;3.20;1.60;;;9.90;99.90;;;;;;5048902;28;20412;-73
2022/02/04 13:33:50;;;;;;;3.40;1.80;;;9.70;99.90;;;;;;5046641;28;20453;-72
2022/02/04 13:36:35;;;;;;;3.27;1.97;;;9.80;99.90;;;;;;5073397;22;20409;-69
2022/02/04 13:39:49;;;;;;;2.03;1.77;;;9.90;99.90;;;;;;5068291;28;20420;-70
2022/02/04 13:42:44;;;;;;;3.20;1.90;;;9.80;99.90;;;;;;5051876;28;20798;-70
2022/02/04 13:45:39;;;;;;;1.40;1.30;;;10.00;99.90;;;;;;5069125;28;20847;-70
2022/02/04 13:48:31;;;;;;;3.40;1.23;;;9.80;99.90;;;;;;5056841;28;20808;-70
2022/02/04 13:51:11;;;;;;;3.43;1.70;;;9.40;99.90;;;;;;5034153;28;20514;-71
2022/02/04 13:53:49;;;;;;;4.07;1.50;;;9.40;99.90;;;;;;5058891;28;20975;-68
2022/02/04 13:56:46;;;;;;;1.63;1.53;;;9.60;99.90;;;;;;5056864;28;20415;-69
2022/02/04 13:59:21;;;;;;;2.33;2.00;;;9.50;99.90;;;;;;5063452;28;20563;-69
2022/02/04 14:01:55;;;;;;;1.47;1.30;;;9.50;99.90;;;;;;5045020;28;20550;-71
2022/02/04 14:04:21;;;;;;;1.63;1.53;;;9.50;99.90;;;;;;5068469;28;20407;-68
2022/02/04 14:06:47;;;;;;;3.70;1.27;;;9.60;99.90;;;;;;5064307;28;20516;-71
2022/02/04 14:09:16;;;;;;;1.57;1.30;;;9.60;99.90;;;;;;5055119;28;20233;-69
2022/02/04 14:11:43;;;;;;;3.20;1.80;;;9.60;99.90;;;;;;5052171;28;20180;-71
2022/02/04 14:14:11;;;;;;;3.10;1.80;;;9.70;99.90;;;;;;5063822;28;20462;-71
2022/02/04 14:16:38;;;;;;;1.40;1.30;;;9.80;99.90;;;;;;5061582;28;20514;-72
2022/02/04 14:19:05;;;;;;;2.30;1.70;;;9.80;99.90;;;;;;5064482;28;20424;-71
2022/02/04 14:21:31;;;;;;;2.60;1.63;;;9.70;99.90;;;;;;5061955;28;20498;-71
2022/02/04 14:24:00;;;;;;;2.20;1.63;;;9.90;99.90;;;;;;5060205;28;20419;-73
2022/02/04 14:26:34;;;;;;;1.60;1.50;;;10.00;99.90;;;;;;5056613;28;20440;-72
2022/02/04 14:29:16;;;;;;;1.97;1.63;;;9.90;99.90;;;;;;5057767;28;20540;-71
2022/02/04 14:31:56;;;;;;;1.70;1.50;;;9.90;99.90;;;;;;5046193;28;20427;-71
2022/02/04 14:37:03;;;;;;;2.10;1.90;;;10.00;99.90;;;;;;5057717;28;21128;-73
2022/02/04 14:53:22;;;;;;;1.27;1.13;;;9.20;99.90;;;;;;5059389;28;20463;-70
2022/02/04 15:01:29;;;;;;;1.20;1.10;;;9.50;99.90;;;;;;5048981;28;20459;-72
2022/02/04 15:06:30;;;;;;;2.33;1.30;;;9.80;99.90;;;;;;5065296;28;20414;-72
2022/02/04 15:08:56;;;;;;;1.70;1.57;;;9.70;99.90;;;;;;5055671;28;20961;-72
2022/02/04 15:11:25;;;;;;;1.60;1.40;;;9.70;99.90;;;;;;5056151;28;20447;-73
2022/02/04 15:13:50;;;;;;;1.57;1.47;;;9.80;99.90;;;;;;5052972;28;20196;-71
2022/02/04 15:16:16;;;;;;;1.67;0.90;;;9.90;99.90;;;;;;5062055;28;20941;-72
2022/02/04 15:18:43;;;;;;;2.53;1.50;;;9.80;99.90;;;;;;5057103;28;20313;-71
2022/02/04 15:21:15;;;;;;;1.13;1.00;;;9.70;99.90;;;;;;5039529;28;20188;-72
2022/02/04 15:23:42;;;;;;;1.90;0.80;;;9.60;99.90;;;;;;5057009;28;20437;-71
2022/02/04 15:26:11;;;;;;;0.83;0.73;;;9.50;99.90;;;;;;5055804;28;20412;-71
2022/02/04 15:31:09;;;;;;;1.13;1.03;;;9.30;99.90;;;;;;5063950;28;20422;-71
2022/02/04 15:33:36;;;;;;;1.13;1.07;;;9.50;99.90;;;;;;5059557;28;20452;-72
2022/02/04 15:36:03;;;;;;;1.10;0.93;;;9.30;99.90;;;;;;5056495;28;20412;-72
2022/02/04 15:38:29;;;;;;;1.00;0.77;;;9.50;99.90;;;;;;5051590;28;20936;-71
2022/02/04 15:40:57;;;;;;;1.07;0.83;;;9.60;99.90;;;;;;5058177;28;20474;-70
2022/02/04 15:43:24;;;;;;;1.90;1.20;;;9.80;99.90;;;;;;5050119;28;20488;-70
2022/02/04 15:46:16;;;;;;;1.47;0.90;;;9.60;99.90;;;;;;5054061;28;20422;-70
2022/02/04 15:51:17;;;;;;;0.97;0.87;;;9.40;99.90;;;;;;5057807;28;20889;-72
2022/02/04 15:54:03;;;;;;;2.13;0.93;;;9.50;99.90;;;;;;5052972;28;20202;-71
2022/02/04 15:56:47;;;;;;;1.10;0.80;;;9.50;99.90;;;;;;5054787;28;20416;-71
2022/02/04 16:04:45;;;;;;;2.13;1.00;;;9.50;99.90;;;;;;5075621;28;20996;-72
2022/02/04 16:07:10;;;;;;;1.40;1.03;;;9.60;99.90;;;;;;5072192;28;20445;-72
2022/02/04 16:09:37;;;;;;;2.03;1.20;;;9.30;99.90;;;;;;5063459;28;20510;-73
2022/02/04 16:12:20;;;;;;;4.80;1.43;;;9.30;99.90;;;;;;5037272;28;20192;-70
2022/02/04 16:14:55;;;;;;;1.20;1.00;;;9.30;99.90;;;;;;5043136;28;20579;-72
2022/02/04 16:17:33;;;;;;;0.80;0.70;;;9.40;99.90;;;;;;5050660;28;20479;-72
2022/02/04 16:20:24;;;;;;;3.50;1.30;;;9.40;99.90;;;;;;5035353;28;20420;-74
2022/02/04 16:23:03;;;;;;;1.80;1.20;;;9.30;99.90;;;;;;5055159;28;20419;-71
2022/02/04 16:30:39;;;;;;;1.27;1.03;;;9.20;99.90;;;;;;5056223;28;20243;-71
2022/02/04 16:33:04;;;;;;;1.50;1.27;;;9.00;99.90;;;;;;5052645;28;20459;-71
2022/02/04 16:35:30;;;;;;;1.87;1.50;;;9.00;99.90;;;;;;5051920;28;20175;-71
2022/02/04 16:38:04;;;;;;;1.20;1.10;;;8.80;99.90;;;;;;5051681;28;20224;-74
2022/02/04 16:40:34;;;;;;;1.10;1.00;;;8.90;99.90;;;;;;5029804;28;20427;-71
2022/02/04 16:43:03;;;;;;;1.77;1.27;;;9.00;99.90;;;;;;5056497;28;20687;-71
2022/02/04 16:45:29;;;;;;;2.07;1.00;;;9.00;99.90;;;;;;5056993;28;20948;-72
2022/02/04 16:47:57;;;;;;;1.60;0.97;;;8.90;99.90;;;;;;5044456;28;20439;-72
2022/02/04 16:50:23;;;;;;;1.33;1.23;;;8.70;99.90;;;;;;5037074;28;21062;-73
2022/02/04 16:52:50;;;;;;;1.63;1.00;;;8.80;99.90;;;;;;5049828;28;20465;-71
2022/02/04 16:55:18;;;;;;;1.03;0.87;;;8.80;99.90;;;;;;5057812;28;20413;-71
2022/02/04 16:57:46;;;;;;;4.40;1.40;;;8.80;99.90;;;;;;5049584;28;20833;-70
2022/02/04 17:00:22;;;;;;;2.73;1.53;;;8.90;99.90;;;;;;5050661;28;20428;-70
2022/02/04 17:02:50;;;;;;;2.87;1.53;;;8.80;99.90;;;;;;5026799;28;20569;-73
2022/02/04 17:05:18;;;;;;;1.50;1.30;;;8.90;99.90;;;;;;5063398;28;20433;-73
2022/02/04 17:07:52;;;;;;;1.43;0.83;;;9.00;99.90;;;;;;5040437;28;20811;-72
2022/02/04 17:10:25;;;;;;;1.57;1.27;;;9.00;99.90;;;;;;5057185;28;20490;-72
2022/02/04 17:12:58;;;;;;;1.03;0.93;;;9.00;99.90;;;;;;5054539;28;20995;-73
2022/02/04 17:15:24;;;;;;;1.57;0.93;;;8.90;99.90;;;;;;5063410;28;20656;-73
2022/02/04 17:17:50;;;;;;;3.20;2.90;;;8.80;99.90;;;;;;5051520;28;20473;-72
2022/02/04 17:20:16;;;;;;;1.40;0.90;;;8.70;99.90;;;;;;5056081;28;20480;-73
2022/02/04 17:22:42;;;;;;;0.80;0.80;;;8.70;99.90;;;;;;5044784;28;20428;-71
2022/02/04 17:25:10;;;;;;;1.33;1.00;;;8.80;99.90;;;;;;5044940;28;20177;-73
2022/02/04 17:27:38;;;;;;;1.10;1.00;;;8.80;99.90;;;;;;5050847;28;20557;-72
2022/02/04 17:30:10;;;;;;;1.23;1.10;;;8.80;99.90;;;;;;5025377;28;20426;-73
2022/02/04 17:32:39;;;;;;;2.60;1.10;;;8.80;99.90;;;;;;5057209;28;20466;-72
2022/02/04 17:35:05;;;;;;;2.00;1.30;;;8.90;99.90;;;;;;5047345;28;20411;-72
2022/02/04 17:37:31;;;;;;;1.70;1.07;;;8.80;99.90;;;;;;5056253;28;20523;-72
2022/02/04 17:39:57;;;;;;;1.00;0.80;;;8.90;99.90;;;;;;5044539;28;20493;-73
2022/02/04 17:42:24;;;;;;;1.40;1.30;;;8.80;99.90;;;;;;5054492;28;20931;-72
2022/02/04 17:44:51;;;;;;;1.03;0.93;;;8.80;99.90;;;;;;5046175;28;20450;-72
2022/02/04 17:47:19;;;;;;;1.43;1.30;;;8.80;99.90;;;;;;5048889;28;20450;-73
2022/02/04 17:49:58;;;;;;;1.23;1.13;;;8.90;99.90;;;;;;5050811;28;20883;-72
2022/02/04 17:52:35;;;;;;;4.30;3.37;;;8.90;99.90;;;;;;5049111;28;20399;-71
2022/02/04 17:55:08;;;;;;;1.20;1.10;;;8.90;99.90;;;;;;5063181;28;20417;-74
2022/02/04 17:57:49;;;;;;;1.40;1.10;;;8.90;99.90;;;;;;5056757;28;20549;-73
2022/02/04 18:03:27;;;;;;;3.67;2.60;;;9.10;99.90;;;;;;5051465;28;20813;-73
2022/02/04 18:08:14;;;;;;;2.03;1.30;;;8.80;99.90;;;;;;5054722;28;20451;-73
2022/02/04 18:10:40;;;;;;;6.00;2.63;;;8.80;99.90;;;;;;5053842;28;20615;-71
2022/02/04 18:13:18;;;;;;;2.73;2.07;;;8.80;99.90;;;;;;5056105;28;20246;-72
2022/02/04 18:15:46;;;;;;;7.73;5.03;;;8.80;99.90;;;;;;5049010;28;20421;-73
2022/02/04 18:18:13;;;;;;;1.73;1.50;;;8.90;99.90;;;;;;5055738;28;20451;-73
2022/02/04 18:20:39;;;;;;;2.27;1.67;;;8.70;99.90;;;;;;5059060;28;20422;-74
2022/02/04 18:23:05;;;;;;;3.30;1.77;;;8.70;99.90;;;;;;5050629;28;20930;-72
2022/02/04 18:25:32;;;;;;;4.67;3.50;;;8.60;99.90;;;;;;5052140;28;20564;-71
2022/02/04 18:27:59;;;;;;;8.37;5.53;;;8.60;99.90;;;;;;5050729;28;20444;-72
2022/02/04 18:30:26;;;;;;;2.37;2.00;;;8.80;99.90;;;;;;5037070;28;20632;-71
2022/02/04 18:32:51;;;;;;;3.30;2.60;;;8.80;99.90;;;;;;5063148;28;21402;-70
2022/02/04 18:35:19;;;;;;;1.63;1.30;;;8.50;99.90;;;;;;5041872;28;20527;-73
2022/02/04 18:38:00;;;;;;;1.80;1.33;;;8.40;99.90;;;;;;5040115;28;20709;-72
2022/02/04 18:40:49;;;;;;;2.80;1.77;;;8.50;99.90;;;;;;5056182;28;20425;-72
2022/02/04 18:46:26;;;;;;;2.40;1.33;;;8.50;99.90;;;;;;5049726;28;20838;-72
2022/02/04 18:48:49;;;;;;;1.70;1.50;;;8.50;99.90;;;;;;5059181;28;20448;-72
2022/02/04 18:54:13;;;;;;;1.60;1.37;;;8.40;99.90;;;;;;5053053;28;20817;-72
2022/02/04 18:59:12;;;;;;;2.20;2.00;;;8.50;99.90;;;;;;5054359;28;20456;-72
2022/02/04 19:01:37;;;;;;;1.53;1.43;;;8.40;99.90;;;;;;5057023;28;20435;-72
2022/02/04 19:04:08;;;;;;;2.33;2.10;;;8.50;99.90;;;;;;5061165;28;21000;-71
2022/02/04 19:06:39;;;;;;;3.50;2.53;;;8.40;99.90;;;;;;5054065;28;20212;-73
2022/02/04 19:09:06;;;;;;;1.77;1.63;;;8.40;99.90;;;;;;5048380;28;20410;-71
2022/02/04 19:11:43;;;;;;;1.90;1.70;;;8.40;99.90;;;;;;5050041;28;20792;-73
2022/02/04 19:14:14;;;;;;;2.00;1.67;;;8.40;99.90;;;;;;5028850;28;20734;-73
2022/02/04 19:16:50;;;;;;;2.40;1.80;;;8.50;99.90;;;;;;5047270;28;20462;-73
2022/02/04 19:21:53;;;;;;;1.70;1.60;;;8.30;99.90;;;;;;5063969;28;20421;-72
2022/02/04 19:24:20;;;;;;;1.90;1.50;;;8.30;99.90;;;;;;5045890;28;20208;-71
2022/02/04 19:26:46;;;;;;;1.90;1.70;;;8.30;99.90;;;;;;5056588;28;20814;-72
2022/02/04 19:29:11;;;;;;;1.40;1.30;;;8.30;99.90;;;;;;5059136;28;20406;-73
2022/02/04 19:31:51;;;;;;;1.70;1.47;;;8.20;99.90;;;;;;5032858;28;20183;-73
2022/02/04 19:34:17;;;;;;;1.23;1.10;;;8.30;99.90;;;;;;5046029;28;20278;-72